sensor_id;sensor_type;location;lat;lon;timestamp;temperature;humidity
39079;DHT22;24829;49.208;12.080;2022-07-29T00:01:33;21.30;75.70
39079;DHT22;24829;49.208;12.080;2022-07-29T00:03:58;21.40;75.90
39079;DHT22;24829;49.208;12.080;2022-07-29T00:06:24;21.30;75.80
39079;DHT22;24829;49.208;12.080;2022-07-29T00:08:49;21.30;75.80
39079;DHT22;24829;49.208;12.080;2022-07-29T00:11:15;21.30;75.80
39079;DHT22;24829;49.208;12.080;2022-07-29T00:13:41;21.20;76.00
39079;DHT22;24829;49.208;12.080;2022-07-29T00:16:06;21.20;76.30
39079;DHT22;24829;49.208;12.080;2022-07-29T00:18:32;21.20;76.70
39079;DHT22;24829;49.208;12.080;2022-07-29T00:20:57;21.20;76.90
39079;DHT22;24829;49.208;12.080;2022-07-29T00:23:23;21.10;77.20
39079;DHT22;24829;49.208;12.080;2022-07-29T00:25:48;21.10;77.40
39079;DHT22;24829;49.208;12.080;2022-07-29T00:28:14;21.10;77.40
39079;DHT22;24829;49.208;12.080;2022-07-29T00:30:39;21.10;77.20
39079;DHT22;24829;49.208;12.080;2022-07-29T00:33:08;21.20;77.00
39079;DHT22;24829;49.208;12.080;2022-07-29T00:35:34;21.10;77.00
39079;DHT22;24829;49.208;12.080;2022-07-29T00:38:19;21.10;77.00
39079;DHT22;24829;49.208;12.080;2022-07-29T00:40:46;21.10;76.90
39079;DHT22;24829;49.208;12.080;2022-07-29T00:43:12;21.10;77.50
39079;DHT22;24829;49.208;12.080;2022-07-29T00:45:39;21.00;77.10
39079;DHT22;24829;49.208;12.080;2022-07-29T00:48:05;21.00;77.00
39079;DHT22;24829;49.208;12.080;2022-07-29T00:50:32;20.90;77.30
39079;DHT22;24829;49.208;12.080;2022-07-29T00:52:58;20.90;77.50
39079;DHT22;24829;49.208;12.080;2022-07-29T00:55:23;20.90;77.70
39079;DHT22;24829;49.208;12.080;2022-07-29T00:57:49;20.90;77.80
39079;DHT22;24829;49.208;12.080;2022-07-29T01:00:21;20.90;77.70
39079;DHT22;24829;49.208;12.080;2022-07-29T01:02:48;20.90;77.80
39079;DHT22;24829;49.208;12.080;2022-07-29T01:05:14;20.80;77.70
39079;DHT22;24829;49.208;12.080;2022-07-29T01:07:41;20.90;77.90
39079;DHT22;24829;49.208;12.080;2022-07-29T01:10:09;20.90;77.90
39079;DHT22;24829;49.208;12.080;2022-07-29T01:12:37;20.90;77.80
39079;DHT22;24829;49.208;12.080;2022-07-29T01:15:05;21.00;77.80
39079;DHT22;24829;49.208;12.080;2022-07-29T01:26:45;21.10;78.80
39079;DHT22;24829;49.208;12.080;2022-07-29T01:31:55;21.00;79.70
39079;DHT22;24829;49.208;12.080;2022-07-29T01:34:25;20.90;80.50
39079;DHT22;24829;49.208;12.080;2022-07-29T01:37:14;20.90;80.30
39079;DHT22;24829;49.208;12.080;2022-07-29T01:39:44;20.90;79.70
39079;DHT22;24829;49.208;12.080;2022-07-29T01:47:56;20.90;79.30
39079;DHT22;24829;49.208;12.080;2022-07-29T01:50:34;20.80;80.40
39079;DHT22;24829;49.208;12.080;2022-07-29T01:53:04;20.70;80.50
39079;DHT22;24829;49.208;12.080;2022-07-29T01:55:34;20.60;81.30
39079;DHT22;24829;49.208;12.080;2022-07-29T01:58:03;20.50;81.40
39079;DHT22;24829;49.208;12.080;2022-07-29T02:00:31;20.40;81.70
39079;DHT22;24829;49.208;12.080;2022-07-29T02:03:02;20.40;81.60
39079;DHT22;24829;49.208;12.080;2022-07-29T02:05:28;20.40;81.50
39079;DHT22;24829;49.208;12.080;2022-07-29T02:07:57;20.40;81.70
39079;DHT22;24829;49.208;12.080;2022-07-29T02:10:26;20.30;82.20
39079;DHT22;24829;49.208;12.080;2022-07-29T02:12:54;20.30;82.70
39079;DHT22;24829;49.208;12.080;2022-07-29T02:15:23;20.30;83.00
39079;DHT22;24829;49.208;12.080;2022-07-29T02:17:53;20.30;82.20
39079;DHT22;24829;49.208;12.080;2022-07-29T02:20:22;20.30;82.00
39079;DHT22;24829;49.208;12.080;2022-07-29T02:22:49;20.30;81.60
39079;DHT22;24829;49.208;12.080;2022-07-29T02:25:17;20.30;81.70
39079;DHT22;24829;49.208;12.080;2022-07-29T02:27:44;20.30;81.60
39079;DHT22;24829;49.208;12.080;2022-07-29T02:30:11;20.40;81.70
39079;DHT22;24829;49.208;12.080;2022-07-29T02:32:39;20.30;81.50
39079;DHT22;24829;49.208;12.080;2022-07-29T02:35:06;20.30;81.20
39079;DHT22;24829;49.208;12.080;2022-07-29T02:37:33;20.30;81.20
39079;DHT22;24829;49.208;12.080;2022-07-29T02:40:01;20.30;81.20
39079;DHT22;24829;49.208;12.080;2022-07-29T02:42:28;20.20;81.50
39079;DHT22;24829;49.208;12.080;2022-07-29T02:44:54;20.10;81.60
39079;DHT22;24829;49.208;12.080;2022-07-29T02:47:46;20.10;81.80
39079;DHT22;24829;49.208;12.080;2022-07-29T02:50:21;20.00;82.00
39079;DHT22;24829;49.208;12.080;2022-07-29T02:53:00;20.00;82.20
39079;DHT22;24829;49.208;12.080;2022-07-29T02:55:40;20.00;82.20
39079;DHT22;24829;49.208;12.080;2022-07-29T02:58:24;19.90;82.40
39079;DHT22;24829;49.208;12.080;2022-07-29T03:00:57;20.00;82.60
39079;DHT22;24829;49.208;12.080;2022-07-29T03:03:25;20.00;82.70
39079;DHT22;24829;49.208;12.080;2022-07-29T03:05:57;19.90;82.80
39079;DHT22;24829;49.208;12.080;2022-07-29T03:08:25;19.90;83.10
39079;DHT22;24829;49.208;12.080;2022-07-29T03:10:52;19.80;83.30
39079;DHT22;24829;49.208;12.080;2022-07-29T03:13:19;19.80;83.50
39079;DHT22;24829;49.208;12.080;2022-07-29T03:15:46;19.70;83.70
39079;DHT22;24829;49.208;12.080;2022-07-29T03:18:12;19.70;84.00
39079;DHT22;24829;49.208;12.080;2022-07-29T03:20:39;19.80;84.10
39079;DHT22;24829;49.208;12.080;2022-07-29T03:23:04;19.80;83.90
39079;DHT22;24829;49.208;12.080;2022-07-29T03:25:30;19.90;84.00
39079;DHT22;24829;49.208;12.080;2022-07-29T03:27:56;19.90;84.00
39079;DHT22;24829;49.208;12.080;2022-07-29T03:30:23;19.90;84.00
39079;DHT22;24829;49.208;12.080;2022-07-29T03:32:49;19.90;84.40
39079;DHT22;24829;49.208;12.080;2022-07-29T03:35:15;20.00;83.50
39079;DHT22;24829;49.208;12.080;2022-07-29T03:37:47;20.00;83.30
39079;DHT22;24829;49.208;12.080;2022-07-29T03:40:19;20.00;83.30
39079;DHT22;24829;49.208;12.080;2022-07-29T03:42:46;20.00;83.30
39079;DHT22;24829;49.208;12.080;2022-07-29T03:45:17;19.90;83.10
39079;DHT22;24829;49.208;12.080;2022-07-29T03:47:47;19.90;83.40
39079;DHT22;24829;49.208;12.080;2022-07-29T03:50:15;19.90;83.60
39079;DHT22;24829;49.208;12.080;2022-07-29T03:52:41;19.80;83.80
39079;DHT22;24829;49.208;12.080;2022-07-29T03:55:08;19.80;84.20
39079;DHT22;24829;49.208;12.080;2022-07-29T03:57:35;19.70;84.40
39079;DHT22;24829;49.208;12.080;2022-07-29T04:00:04;19.60;84.80
39079;DHT22;24829;49.208;12.080;2022-07-29T04:02:31;19.60;84.90
39079;DHT22;24829;49.208;12.080;2022-07-29T04:04:58;19.70;84.90
39079;DHT22;24829;49.208;12.080;2022-07-29T04:07:23;19.70;84.80
39079;DHT22;24829;49.208;12.080;2022-07-29T04:09:49;19.80;84.90
39079;DHT22;24829;49.208;12.080;2022-07-29T04:12:14;19.70;85.20
39079;DHT22;24829;49.208;12.080;2022-07-29T04:14:40;19.70;85.20
39079;DHT22;24829;49.208;12.080;2022-07-29T04:17:06;19.70;85.50
39079;DHT22;24829;49.208;12.080;2022-07-29T04:19:31;19.70;85.60
39079;DHT22;24829;49.208;12.080;2022-07-29T04:21:58;19.80;85.60
39079;DHT22;24829;49.208;12.080;2022-07-29T04:24:24;19.80;85.70
39079;DHT22;24829;49.208;12.080;2022-07-29T04:26:50;19.80;85.70
39079;DHT22;24829;49.208;12.080;2022-07-29T04:29:16;19.80;85.80
39079;DHT22;24829;49.208;12.080;2022-07-29T04:31:42;19.90;85.70
39079;DHT22;24829;49.208;12.080;2022-07-29T04:34:08;19.90;85.60
39079;DHT22;24829;49.208;12.080;2022-07-29T04:36:34;20.00;85.40
39079;DHT22;24829;49.208;12.080;2022-07-29T04:39:00;20.00;85.70
39079;DHT22;24829;49.208;12.080;2022-07-29T04:41:27;20.10;85.60
39079;DHT22;24829;49.208;12.080;2022-07-29T04:43:52;20.10;85.00
39079;DHT22;24829;49.208;12.080;2022-07-29T04:46:18;20.10;85.00
39079;DHT22;24829;49.208;12.080;2022-07-29T04:48:45;20.10;85.20
39079;DHT22;24829;49.208;12.080;2022-07-29T04:51:12;20.10;85.40
39079;DHT22;24829;49.208;12.080;2022-07-29T04:53:37;20.10;85.60
39079;DHT22;24829;49.208;12.080;2022-07-29T04:56:03;20.10;85.80
39079;DHT22;24829;49.208;12.080;2022-07-29T04:58:28;20.10;86.30
39079;DHT22;24829;49.208;12.080;2022-07-29T05:00:54;20.10;86.60
39079;DHT22;24829;49.208;12.080;2022-07-29T05:03:20;20.00;87.00
39079;DHT22;24829;49.208;12.080;2022-07-29T05:05:45;20.00;87.40
39079;DHT22;24829;49.208;12.080;2022-07-29T05:08:11;20.00;87.40
39079;DHT22;24829;49.208;12.080;2022-07-29T05:10:36;19.90;88.10
39079;DHT22;24829;49.208;12.080;2022-07-29T05:13:06;19.90;88.40
39079;DHT22;24829;49.208;12.080;2022-07-29T05:15:34;19.80;88.70
39079;DHT22;24829;49.208;12.080;2022-07-29T05:18:00;19.80;88.70
39079;DHT22;24829;49.208;12.080;2022-07-29T05:20:26;19.90;89.80
39079;DHT22;24829;49.208;12.080;2022-07-29T05:22:57;19.90;89.30
39079;DHT22;24829;49.208;12.080;2022-07-29T05:25:23;19.90;89.50
39079;DHT22;24829;49.208;12.080;2022-07-29T05:27:49;19.90;89.40
39079;DHT22;24829;49.208;12.080;2022-07-29T05:30:15;19.90;90.00
39079;DHT22;24829;49.208;12.080;2022-07-29T05:32:40;19.90;90.00
39079;DHT22;24829;49.208;12.080;2022-07-29T05:35:06;19.80;90.30
39079;DHT22;24829;49.208;12.080;2022-07-29T05:37:33;19.80;90.60
39079;DHT22;24829;49.208;12.080;2022-07-29T05:39:58;19.80;90.80
39079;DHT22;24829;49.208;12.080;2022-07-29T05:42:24;19.70;91.30
39079;DHT22;24829;49.208;12.080;2022-07-29T05:44:50;19.70;91.40
39079;DHT22;24829;49.208;12.080;2022-07-29T05:47:16;19.70;91.50
39079;DHT22;24829;49.208;12.080;2022-07-29T05:49:42;19.80;91.70
39079;DHT22;24829;49.208;12.080;2022-07-29T05:52:08;19.80;91.60
39079;DHT22;24829;49.208;12.080;2022-07-29T05:54:34;19.80;91.70
39079;DHT22;24829;49.208;12.080;2022-07-29T05:57:00;19.80;91.90
39079;DHT22;24829;49.208;12.080;2022-07-29T05:59:25;19.80;92.10
39079;DHT22;24829;49.208;12.080;2022-07-29T06:01:51;19.80;92.30
39079;DHT22;24829;49.208;12.080;2022-07-29T06:04:17;19.80;92.20
39079;DHT22;24829;49.208;12.080;2022-07-29T06:06:42;19.80;92.30
39079;DHT22;24829;49.208;12.080;2022-07-29T06:09:08;19.80;93.10
39079;DHT22;24829;49.208;12.080;2022-07-29T06:11:33;19.70;93.70
39079;DHT22;24829;49.208;12.080;2022-07-29T06:13:59;19.70;93.70
39079;DHT22;24829;49.208;12.080;2022-07-29T06:16:24;19.70;93.90
39079;DHT22;24829;49.208;12.080;2022-07-29T06:18:50;19.60;93.90
39079;DHT22;24829;49.208;12.080;2022-07-29T06:21:15;19.50;94.70
39079;DHT22;24829;49.208;12.080;2022-07-29T06:23:42;19.50;95.20
39079;DHT22;24829;49.208;12.080;2022-07-29T06:26:07;19.50;95.70
39079;DHT22;24829;49.208;12.080;2022-07-29T06:28:34;19.50;95.90
39079;DHT22;24829;49.208;12.080;2022-07-29T06:30:59;19.50;96.20
39079;DHT22;24829;49.208;12.080;2022-07-29T06:33:25;19.50;96.90
39079;DHT22;24829;49.208;12.080;2022-07-29T06:35:50;19.40;97.50
39079;DHT22;24829;49.208;12.080;2022-07-29T06:38:16;19.40;97.60
39079;DHT22;24829;49.208;12.080;2022-07-29T06:40:42;19.30;98.30
39079;DHT22;24829;49.208;12.080;2022-07-29T06:46:00;19.30;97.90
39079;DHT22;24829;49.208;12.080;2022-07-29T06:48:27;19.30;96.90
39079;DHT22;24829;49.208;12.080;2022-07-29T06:50:53;19.20;97.30
39079;DHT22;24829;49.208;12.080;2022-07-29T06:53:19;19.30;97.20
39079;DHT22;24829;49.208;12.080;2022-07-29T06:55:44;19.30;97.30
39079;DHT22;24829;49.208;12.080;2022-07-29T06:58:10;19.30;97.40
39079;DHT22;24829;49.208;12.080;2022-07-29T07:00:36;19.40;97.30
39079;DHT22;24829;49.208;12.080;2022-07-29T07:03:02;19.40;97.20
39079;DHT22;24829;49.208;12.080;2022-07-29T07:05:27;19.50;96.40
39079;DHT22;24829;49.208;12.080;2022-07-29T07:07:53;19.60;96.20
39079;DHT22;24829;49.208;12.080;2022-07-29T07:10:18;19.70;96.30
39079;DHT22;24829;49.208;12.080;2022-07-29T07:12:44;19.80;95.70
39079;DHT22;24829;49.208;12.080;2022-07-29T07:15:10;19.90;95.30
39079;DHT22;24829;49.208;12.080;2022-07-29T07:17:35;20.00;94.70
39079;DHT22;24829;49.208;12.080;2022-07-29T07:20:01;20.10;94.20
39079;DHT22;24829;49.208;12.080;2022-07-29T07:22:26;20.30;93.90
39079;DHT22;24829;49.208;12.080;2022-07-29T07:24:52;20.30;93.60
39079;DHT22;24829;49.208;12.080;2022-07-29T07:27:17;20.50;93.40
39079;DHT22;24829;49.208;12.080;2022-07-29T07:29:43;20.50;92.80
39079;DHT22;24829;49.208;12.080;2022-07-29T07:32:08;20.70;92.50
39079;DHT22;24829;49.208;12.080;2022-07-29T07:34:34;21.00;92.10
39079;DHT22;24829;49.208;12.080;2022-07-29T07:37:00;21.40;91.90
39079;DHT22;24829;49.208;12.080;2022-07-29T07:39:26;21.80;90.70
39079;DHT22;24829;49.208;12.080;2022-07-29T07:41:52;22.10;90.00
39079;DHT22;24829;49.208;12.080;2022-07-29T07:44:17;22.30;89.20
39079;DHT22;24829;49.208;12.080;2022-07-29T07:46:43;22.70;87.70
39079;DHT22;24829;49.208;12.080;2022-07-29T07:49:10;23.00;86.40
39079;DHT22;24829;49.208;12.080;2022-07-29T07:51:36;23.50;85.10
39079;DHT22;24829;49.208;12.080;2022-07-29T07:54:01;23.80;84.20
39079;DHT22;24829;49.208;12.080;2022-07-29T07:56:27;24.00;83.40
39079;DHT22;24829;49.208;12.080;2022-07-29T07:58:53;24.10;82.40
39079;DHT22;24829;49.208;12.080;2022-07-29T08:01:18;24.30;81.80
39079;DHT22;24829;49.208;12.080;2022-07-29T08:03:46;24.40;81.30
39079;DHT22;24829;49.208;12.080;2022-07-29T08:06:12;24.50;80.70
39079;DHT22;24829;49.208;12.080;2022-07-29T08:08:37;24.70;80.20
39079;DHT22;24829;49.208;12.080;2022-07-29T08:11:03;25.00;78.90
39079;DHT22;24829;49.208;12.080;2022-07-29T08:13:28;25.20;78.60
39079;DHT22;24829;49.208;12.080;2022-07-29T08:15:56;25.40;77.80
39079;DHT22;24829;49.208;12.080;2022-07-29T08:18:36;25.30;77.80
39079;DHT22;24829;49.208;12.080;2022-07-29T08:21:03;25.00;78.10
39079;DHT22;24829;49.208;12.080;2022-07-29T08:23:28;24.70;79.40
39079;DHT22;24829;49.208;12.080;2022-07-29T08:26:04;24.50;80.10
39079;DHT22;24829;49.208;12.080;2022-07-29T08:28:29;24.40;80.60
39079;DHT22;24829;49.208;12.080;2022-07-29T08:30:55;24.30;80.80
39079;DHT22;24829;49.208;12.080;2022-07-29T08:33:21;24.20;80.70
39079;DHT22;24829;49.208;12.080;2022-07-29T08:35:46;24.00;81.70
39079;DHT22;24829;49.208;12.080;2022-07-29T08:38:12;23.80;81.70
39079;DHT22;24829;49.208;12.080;2022-07-29T08:40:37;23.60;82.60
39079;DHT22;24829;49.208;12.080;2022-07-29T08:43:07;23.40;83.40
39079;DHT22;24829;49.208;12.080;2022-07-29T08:45:45;23.30;84.00
39079;DHT22;24829;49.208;12.080;2022-07-29T08:48:18;23.40;84.10
39079;DHT22;24829;49.208;12.080;2022-07-29T08:50:46;23.60;83.00
39079;DHT22;24829;49.208;12.080;2022-07-29T08:53:14;23.80;83.50
39079;DHT22;24829;49.208;12.080;2022-07-29T08:55:45;24.10;83.10
39079;DHT22;24829;49.208;12.080;2022-07-29T08:58:13;24.40;83.10
39079;DHT22;24829;49.208;12.080;2022-07-29T09:00:51;24.50;82.40
39079;DHT22;24829;49.208;12.080;2022-07-29T09:03:20;24.60;83.00
39079;DHT22;24829;49.208;12.080;2022-07-29T09:05:46;24.60;82.90
39079;DHT22;24829;49.208;12.080;2022-07-29T09:08:13;24.50;83.70
39079;DHT22;24829;49.208;12.080;2022-07-29T09:10:39;24.40;84.70
39079;DHT22;24829;49.208;12.080;2022-07-29T09:13:05;24.30;85.40
39079;DHT22;24829;49.208;12.080;2022-07-29T09:15:31;24.20;85.80
39079;DHT22;24829;49.208;12.080;2022-07-29T09:17:56;24.10;86.50
39079;DHT22;24829;49.208;12.080;2022-07-29T09:20:24;24.00;86.80
39079;DHT22;24829;49.208;12.080;2022-07-29T09:22:51;23.90;87.30
39079;DHT22;24829;49.208;12.080;2022-07-29T09:25:38;23.80;87.60
39079;DHT22;24829;49.208;12.080;2022-07-29T09:28:09;23.90;88.10
39079;DHT22;24829;49.208;12.080;2022-07-29T09:30:36;23.90;88.20
39079;DHT22;24829;49.208;12.080;2022-07-29T09:33:05;24.00;88.20
39079;DHT22;24829;49.208;12.080;2022-07-29T09:35:30;24.10;87.80
39079;DHT22;24829;49.208;12.080;2022-07-29T09:37:56;24.30;87.50
39079;DHT22;24829;49.208;12.080;2022-07-29T09:40:27;24.50;86.60
39079;DHT22;24829;49.208;12.080;2022-07-29T09:42:53;24.60;87.00
39079;DHT22;24829;49.208;12.080;2022-07-29T09:45:33;24.70;87.00
39079;DHT22;24829;49.208;12.080;2022-07-29T09:48:00;24.90;86.10
39079;DHT22;24829;49.208;12.080;2022-07-29T09:50:41;25.30;84.90
39079;DHT22;24829;49.208;12.080;2022-07-29T09:53:07;25.60;84.10
39079;DHT22;24829;49.208;12.080;2022-07-29T09:55:49;25.80;83.50
39079;DHT22;24829;49.208;12.080;2022-07-29T09:58:19;26.10;82.30
39079;DHT22;24829;49.208;12.080;2022-07-29T10:00:45;26.30;81.80
39079;DHT22;24829;49.208;12.080;2022-07-29T10:03:12;26.50;81.00
39079;DHT22;24829;49.208;12.080;2022-07-29T10:05:38;26.60;80.90
39079;DHT22;24829;49.208;12.080;2022-07-29T10:08:04;26.60;80.50
39079;DHT22;24829;49.208;12.080;2022-07-29T10:10:35;26.60;80.60
39079;DHT22;24829;49.208;12.080;2022-07-29T10:13:10;26.60;80.90
39079;DHT22;24829;49.208;12.080;2022-07-29T10:15:39;26.80;80.40
39079;DHT22;24829;49.208;12.080;2022-07-29T10:18:07;27.00;80.10
39079;DHT22;24829;49.208;12.080;2022-07-29T10:20:34;27.30;78.90
39079;DHT22;24829;49.208;12.080;2022-07-29T10:22:59;27.50;78.30
39079;DHT22;24829;49.208;12.080;2022-07-29T10:25:26;27.70;78.10
39079;DHT22;24829;49.208;12.080;2022-07-29T10:27:52;27.80;77.10
39079;DHT22;24829;49.208;12.080;2022-07-29T10:30:20;27.80;77.50
39079;DHT22;24829;49.208;12.080;2022-07-29T10:35:44;27.60;77.60
39079;DHT22;24829;49.208;12.080;2022-07-29T10:46:40;28.10;77.20
39079;DHT22;24829;49.208;12.080;2022-07-29T10:49:08;28.20;77.10
39079;DHT22;24829;49.208;12.080;2022-07-29T10:59:42;28.60;74.80
39079;DHT22;24829;49.208;12.080;2022-07-29T11:05:18;28.80;74.10
39079;DHT22;24829;49.208;12.080;2022-07-29T11:10:38;28.60;74.50
39079;DHT22;24829;49.208;12.080;2022-07-29T11:13:04;28.20;75.30
39079;DHT22;24829;49.208;12.080;2022-07-29T11:15:53;28.00;75.50
39079;DHT22;24829;49.208;12.080;2022-07-29T11:18:20;28.10;75.70
39079;DHT22;24829;49.208;12.080;2022-07-29T11:20:47;28.20;75.80
39079;DHT22;24829;49.208;12.080;2022-07-29T11:31:51;28.20;75.90
39079;DHT22;24829;49.208;12.080;2022-07-29T11:34:32;28.30;75.60
39079;DHT22;24829;49.208;12.080;2022-07-29T11:39:35;28.40;75.20
39079;DHT22;24829;49.208;12.080;2022-07-29T11:45:07;28.60;75.10
39079;DHT22;24829;49.208;12.080;2022-07-29T11:47:41;28.50;74.50
39079;DHT22;24829;49.208;12.080;2022-07-29T11:50:13;28.50;73.80
39079;DHT22;24829;49.208;12.080;2022-07-29T11:52:41;28.30;74.10
39079;DHT22;24829;49.208;12.080;2022-07-29T11:55:16;28.10;74.10
39079;DHT22;24829;49.208;12.080;2022-07-29T11:57:56;28.10;73.70
39079;DHT22;24829;49.208;12.080;2022-07-29T12:00:33;28.00;73.70
39079;DHT22;24829;49.208;12.080;2022-07-29T12:03:02;28.00;73.40
39079;DHT22;24829;49.208;12.080;2022-07-29T12:05:33;28.00;74.20
39079;DHT22;24829;49.208;12.080;2022-07-29T12:10:35;28.20;72.80
39079;DHT22;24829;49.208;12.080;2022-07-29T12:13:01;28.20;72.90
39079;DHT22;24829;49.208;12.080;2022-07-29T12:15:26;28.20;72.70
39079;DHT22;24829;49.208;12.080;2022-07-29T12:17:52;28.30;71.80
39079;DHT22;24829;49.208;12.080;2022-07-29T12:20:28;28.20;71.60
39079;DHT22;24829;49.208;12.080;2022-07-29T12:22:55;28.20;71.90
39079;DHT22;24829;49.208;12.080;2022-07-29T12:25:22;28.20;71.30
39079;DHT22;24829;49.208;12.080;2022-07-29T12:27:58;28.20;70.60
39079;DHT22;24829;49.208;12.080;2022-07-29T12:30:35;28.20;68.60
39079;DHT22;24829;49.208;12.080;2022-07-29T12:33:00;28.10;68.30
39079;DHT22;24829;49.208;12.080;2022-07-29T12:35:26;28.10;69.10
39079;DHT22;24829;49.208;12.080;2022-07-29T12:37:52;28.00;68.80
39079;DHT22;24829;49.208;12.080;2022-07-29T12:40:18;28.00;69.80
39079;DHT22;24829;49.208;12.080;2022-07-29T12:43:12;27.90;69.20
39079;DHT22;24829;49.208;12.080;2022-07-29T12:45:39;27.90;68.90
39079;DHT22;24829;49.208;12.080;2022-07-29T12:48:06;27.80;69.00
39079;DHT22;24829;49.208;12.080;2022-07-29T12:50:34;27.70;69.40
39079;DHT22;24829;49.208;12.080;2022-07-29T12:53:13;27.70;70.50
39079;DHT22;24829;49.208;12.080;2022-07-29T12:55:47;27.60;70.90
39079;DHT22;24829;49.208;12.080;2022-07-29T12:58:35;27.60;73.10
39079;DHT22;24829;49.208;12.080;2022-07-29T13:06:39;27.20;77.40
39079;DHT22;24829;49.208;12.080;2022-07-29T13:09:06;27.10;79.40
39079;DHT22;24829;49.208;12.080;2022-07-29T13:11:51;26.90;82.10
39079;DHT22;24829;49.208;12.080;2022-07-29T13:17:17;26.60;85.70
39079;DHT22;24829;49.208;12.080;2022-07-29T13:19:45;26.40;89.40
39079;DHT22;24829;49.208;12.080;2022-07-29T13:22:12;26.30;89.50
39079;DHT22;24829;49.208;12.080;2022-07-29T13:24:59;26.20;90.40
39079;DHT22;24829;49.208;12.080;2022-07-29T13:27:29;26.00;91.00
39079;DHT22;24829;49.208;12.080;2022-07-29T13:29:56;26.00;92.10
39079;DHT22;24829;49.208;12.080;2022-07-29T13:32:26;25.80;92.70
39079;DHT22;24829;49.208;12.080;2022-07-29T13:34:53;25.70;92.70
39079;DHT22;24829;49.208;12.080;2022-07-29T13:37:19;25.70;92.80
39079;DHT22;24829;49.208;12.080;2022-07-29T13:39:45;25.60;93.90
39079;DHT22;24829;49.208;12.080;2022-07-29T13:42:10;25.60;93.70
39079;DHT22;24829;49.208;12.080;2022-07-29T13:44:39;25.50;93.00
39079;DHT22;24829;49.208;12.080;2022-07-29T13:47:05;25.40;92.40
39079;DHT22;24829;49.208;12.080;2022-07-29T13:49:31;25.40;92.20
39079;DHT22;24829;49.208;12.080;2022-07-29T13:51:56;25.30;92.70
39079;DHT22;24829;49.208;12.080;2022-07-29T13:54:22;25.30;91.70
39079;DHT22;24829;49.208;12.080;2022-07-29T13:56:47;25.20;92.00
39079;DHT22;24829;49.208;12.080;2022-07-29T13:59:13;25.20;92.80
39079;DHT22;24829;49.208;12.080;2022-07-29T14:01:38;25.20;93.00
39079;DHT22;24829;49.208;12.080;2022-07-29T14:04:07;25.20;92.10
39079;DHT22;24829;49.208;12.080;2022-07-29T14:06:32;25.10;92.20
39079;DHT22;24829;49.208;12.080;2022-07-29T14:08:58;25.10;92.50
39079;DHT22;24829;49.208;12.080;2022-07-29T14:11:24;24.90;93.60
39079;DHT22;24829;49.208;12.080;2022-07-29T14:13:49;24.90;93.70
39079;DHT22;24829;49.208;12.080;2022-07-29T14:16:15;25.00;94.00
39079;DHT22;24829;49.208;12.080;2022-07-29T14:18:40;24.90;93.80
39079;DHT22;24829;49.208;12.080;2022-07-29T14:21:06;25.00;94.20
39079;DHT22;24829;49.208;12.080;2022-07-29T14:23:32;25.00;93.50
39079;DHT22;24829;49.208;12.080;2022-07-29T14:25:57;24.90;93.60
39079;DHT22;24829;49.208;12.080;2022-07-29T14:28:23;24.90;93.90
39079;DHT22;24829;49.208;12.080;2022-07-29T14:30:48;24.80;93.70
39079;DHT22;24829;49.208;12.080;2022-07-29T14:33:14;24.80;93.40
39079;DHT22;24829;49.208;12.080;2022-07-29T14:35:39;24.70;92.70
39079;DHT22;24829;49.208;12.080;2022-07-29T14:38:05;24.50;91.90
39079;DHT22;24829;49.208;12.080;2022-07-29T14:40:30;24.40;92.20
39079;DHT22;24829;49.208;12.080;2022-07-29T14:42:56;24.40;91.80
39079;DHT22;24829;49.208;12.080;2022-07-29T14:45:21;24.40;91.90
39079;DHT22;24829;49.208;12.080;2022-07-29T14:47:48;24.50;91.60
39079;DHT22;24829;49.208;12.080;2022-07-29T14:50:14;24.50;91.60
39079;DHT22;24829;49.208;12.080;2022-07-29T14:52:40;24.50;91.50
39079;DHT22;24829;49.208;12.080;2022-07-29T14:55:06;24.60;91.60
39079;DHT22;24829;49.208;12.080;2022-07-29T14:57:32;24.70;91.60
39079;DHT22;24829;49.208;12.080;2022-07-29T14:59:57;24.80;91.30
39079;DHT22;24829;49.208;12.080;2022-07-29T15:02:23;25.00;89.50
39079;DHT22;24829;49.208;12.080;2022-07-29T15:04:48;25.30;89.00
39079;DHT22;24829;49.208;12.080;2022-07-29T15:07:15;25.40;88.10
39079;DHT22;24829;49.208;12.080;2022-07-29T15:09:41;25.40;87.20
39079;DHT22;24829;49.208;12.080;2022-07-29T15:12:07;25.40;86.20
39079;DHT22;24829;49.208;12.080;2022-07-29T15:14:33;25.30;86.40
39079;DHT22;24829;49.208;12.080;2022-07-29T15:16:59;25.40;85.00
39079;DHT22;24829;49.208;12.080;2022-07-29T15:19:24;25.40;83.10
39079;DHT22;24829;49.208;12.080;2022-07-29T15:21:50;25.40;80.90
39079;DHT22;24829;49.208;12.080;2022-07-29T15:24:16;25.40;80.40
39079;DHT22;24829;49.208;12.080;2022-07-29T15:26:42;25.40;79.40
39079;DHT22;24829;49.208;12.080;2022-07-29T15:29:08;25.40;79.60
39079;DHT22;24829;49.208;12.080;2022-07-29T15:31:34;25.40;80.70
39079;DHT22;24829;49.208;12.080;2022-07-29T15:33:59;25.40;80.30
39079;DHT22;24829;49.208;12.080;2022-07-29T15:36:25;25.30;80.20
39079;DHT22;24829;49.208;12.080;2022-07-29T15:38:54;25.30;80.60
39079;DHT22;24829;49.208;12.080;2022-07-29T15:41:20;25.20;78.90
39079;DHT22;24829;49.208;12.080;2022-07-29T15:43:47;25.20;78.70
39079;DHT22;24829;49.208;12.080;2022-07-29T15:46:17;25.20;78.90
39079;DHT22;24829;49.208;12.080;2022-07-29T15:49:05;25.20;78.30
39079;DHT22;24829;49.208;12.080;2022-07-29T15:51:31;25.20;77.20
39079;DHT22;24829;49.208;12.080;2022-07-29T15:53:56;25.20;77.40
39079;DHT22;24829;49.208;12.080;2022-07-29T15:56:23;25.20;76.80
39079;DHT22;24829;49.208;12.080;2022-07-29T15:58:49;25.20;76.90
39079;DHT22;24829;49.208;12.080;2022-07-29T16:01:18;25.20;76.60
39079;DHT22;24829;49.208;12.080;2022-07-29T16:03:43;25.10;76.70
39079;DHT22;24829;49.208;12.080;2022-07-29T16:06:09;25.10;76.90
39079;DHT22;24829;49.208;12.080;2022-07-29T16:08:35;25.00;77.10
39079;DHT22;24829;49.208;12.080;2022-07-29T16:11:01;25.00;77.50
39079;DHT22;24829;49.208;12.080;2022-07-29T16:13:27;25.00;77.50
39079;DHT22;24829;49.208;12.080;2022-07-29T16:15:55;24.90;77.80
39079;DHT22;24829;49.208;12.080;2022-07-29T16:18:21;25.00;77.80
39079;DHT22;24829;49.208;12.080;2022-07-29T16:20:46;25.00;80.10
39079;DHT22;24829;49.208;12.080;2022-07-29T16:23:12;24.90;85.10
39079;DHT22;24829;49.208;12.080;2022-07-29T16:25:38;24.70;87.80
39079;DHT22;24829;49.208;12.080;2022-07-29T16:28:04;24.50;89.40
39079;DHT22;24829;49.208;12.080;2022-07-29T16:30:30;24.30;90.20